createdAt,value
2023-05-25T00:02:09.290Z,9.90
2023-05-25T00:04:38.470Z,9.90
2023-05-25T00:07:06.771Z,9.80
2023-05-25T00:09:36.362Z,9.80
2023-05-25T00:12:04.840Z,9.80
2023-05-25T00:14:33.020Z,9.80
2023-05-25T00:17:03.984Z,9.70
2023-05-25T00:19:34.003Z,9.70
2023-05-25T00:22:03.048Z,9.70
2023-05-25T00:24:31.801Z,9.60
2023-05-25T00:27:00.536Z,9.70
2023-05-25T00:29:28.966Z,9.60
2023-05-25T00:31:57.229Z,9.60
2023-05-25T00:34:25.590Z,9.60
2023-05-25T00:36:55.356Z,9.50
2023-05-25T00:39:23.525Z,9.50
2023-05-25T00:41:51.869Z,9.50
2023-05-25T00:44:21.676Z,9.50
2023-05-25T00:46:52.448Z,9.50
2023-05-25T00:49:23.521Z,9.40
2023-05-25T00:51:54.404Z,9.30
2023-05-25T00:54:22.916Z,9.30
2023-05-25T00:56:57.241Z,9.30
2023-05-25T00:59:35.689Z,9.40
2023-05-25T01:02:06.969Z,9.30
2023-05-25T01:04:38.105Z,9.30
2023-05-25T01:07:12.848Z,9.30
2023-05-25T01:09:44.684Z,9.30
2023-05-25T01:12:15.980Z,9.10
2023-05-25T01:14:46.734Z,9.10
2023-05-25T01:17:16.334Z,9.10
2023-05-25T01:19:49.705Z,9.00
2023-05-25T01:22:38.174Z,9.00
2023-05-25T01:25:14.642Z,9.00
2023-05-25T01:27:49.709Z,9.00
2023-05-25T01:30:23.287Z,9.00
2023-05-25T01:32:54.319Z,8.90
2023-05-25T01:35:24.128Z,9.00
2023-05-25T01:37:53.971Z,9.00
2023-05-25T01:40:22.257Z,9.00
2023-05-25T01:42:50.371Z,8.90
2023-05-25T01:45:18.570Z,8.90
2023-05-25T01:47:58.547Z,8.90
2023-05-25T01:50:52.332Z,8.90
2023-05-25T01:53:27.656Z,8.90
2023-05-25T01:56:01.683Z,8.90
2023-05-25T01:58:36.539Z,8.90
2023-05-25T02:01:05.161Z,8.90
2023-05-25T02:03:33.455Z,8.90
2023-05-25T02:06:01.825Z,8.80
2023-05-25T02:08:31.438Z,8.60
2023-05-25T02:10:59.566Z,8.80
2023-05-25T02:13:27.875Z,8.80
2023-05-25T02:15:56.348Z,8.80
2023-05-25T02:18:24.754Z,8.70
2023-05-25T02:20:53.269Z,8.70
2023-05-25T02:23:21.709Z,8.60
2023-05-25T02:25:51.678Z,8.70
2023-05-25T02:28:19.993Z,8.70
2023-05-25T02:30:48.197Z,8.70
2023-05-25T02:33:16.413Z,8.70
2023-05-25T02:35:45.034Z,8.70
2023-05-25T02:38:13.433Z,8.60
2023-05-25T02:40:42.665Z,8.60
2023-05-25T02:43:12.157Z,8.60
2023-05-25T02:45:40.339Z,8.60
2023-05-25T02:48:08.550Z,8.60
2023-05-25T02:50:37.022Z,8.60
2023-05-25T02:53:05.248Z,8.60
2023-05-25T02:55:33.413Z,8.50
2023-05-25T02:58:01.609Z,8.60
2023-05-25T03:00:31.907Z,8.50
2023-05-25T03:03:00.212Z,8.50
2023-05-25T03:05:28.374Z,8.50
2023-05-25T03:07:56.536Z,8.40
2023-05-25T03:10:24.649Z,8.40
2023-05-25T03:12:52.757Z,8.40
2023-05-25T03:15:20.991Z,8.30
2023-05-25T03:17:50.889Z,8.30
2023-05-25T03:20:20.807Z,8.40
2023-05-25T03:22:48.956Z,8.40
2023-05-25T03:25:17.268Z,8.40
2023-05-25T03:27:45.449Z,8.40
2023-05-25T03:30:15.004Z,8.40
2023-05-25T03:32:43.261Z,8.40
2023-05-25T03:35:12.899Z,8.40
2023-05-25T03:37:41.058Z,8.50
2023-05-25T03:40:11.513Z,8.50
2023-05-25T03:42:40.015Z,8.50
2023-05-25T03:45:10.017Z,8.50
2023-05-25T03:47:38.664Z,8.60
2023-05-25T03:50:08.755Z,8.60
2023-05-25T03:52:38.320Z,8.70
2023-05-25T03:55:07.385Z,8.70
2023-05-25T03:57:35.674Z,8.70
2023-05-25T04:00:04.720Z,8.80
2023-05-25T04:02:34.672Z,8.80
2023-05-25T04:05:03.028Z,8.90
2023-05-25T04:07:31.249Z,8.90
2023-05-25T04:10:00.963Z,9.00
2023-05-25T04:12:29.169Z,9.00
2023-05-25T04:14:57.429Z,9.10
2023-05-25T04:17:25.731Z,9.10
2023-05-25T04:19:54.213Z,9.20
2023-05-25T04:22:22.395Z,9.20
2023-05-25T04:24:50.623Z,9.30
2023-05-25T04:27:20.961Z,9.30
2023-05-25T04:29:50.428Z,9.50
2023-05-25T04:32:18.826Z,9.50
2023-05-25T04:34:48.211Z,9.60
2023-05-25T04:37:17.200Z,9.70
2023-05-25T04:39:45.390Z,9.80
2023-05-25T04:42:13.546Z,9.90
2023-05-25T04:44:43.169Z,9.90
2023-05-25T04:47:12.167Z,10.10
2023-05-25T04:49:40.314Z,10.10
2023-05-25T04:52:08.458Z,10.40
2023-05-25T04:54:37.410Z,10.90
2023-05-25T04:57:06.296Z,11.60
2023-05-25T04:59:34.506Z,12.30
2023-05-25T05:02:04.053Z,13.10
2023-05-25T05:04:32.226Z,13.80
2023-05-25T05:07:00.920Z,14.30
2023-05-25T05:09:29.054Z,14.90
2023-05-25T05:11:57.245Z,15.00
2023-05-25T05:14:25.425Z,15.40
2023-05-25T05:16:53.524Z,15.60
2023-05-25T05:19:23.511Z,15.60
2023-05-25T05:21:51.636Z,15.40
2023-05-25T05:24:19.732Z,15.30
2023-05-25T05:26:56.298Z,15.20
2023-05-25T05:29:26.695Z,15.10
2023-05-25T05:31:55.383Z,15.00
2023-05-25T05:34:24.906Z,14.60
2023-05-25T05:36:58.170Z,14.30
2023-05-25T05:39:28.206Z,14.10
2023-05-25T05:41:57.056Z,13.90
2023-05-25T05:44:28.819Z,13.70
2023-05-25T05:47:00.833Z,13.60
2023-05-25T05:49:31.812Z,13.40
2023-05-25T05:52:00.377Z,13.30
2023-05-25T05:54:28.536Z,13.40
2023-05-25T05:56:56.781Z,13.40
2023-05-25T05:59:24.925Z,13.50
2023-05-25T06:01:53.080Z,13.60
2023-05-25T06:04:25.188Z,13.60
2023-05-25T06:06:54.626Z,13.70
2023-05-25T06:09:22.764Z,13.90
2023-05-25T06:11:51.461Z,14.20
2023-05-25T06:14:19.692Z,14.20
2023-05-25T06:16:47.787Z,14.40
2023-05-25T06:19:16.091Z,14.70
2023-05-25T06:21:44.232Z,14.80
2023-05-25T06:24:13.661Z,14.80
2023-05-25T06:26:41.788Z,14.70
2023-05-25T06:29:09.909Z,14.90
2023-05-25T06:31:38.095Z,15.10
2023-05-25T06:34:06.399Z,15.40
2023-05-25T06:36:34.564Z,15.50
2023-05-25T06:39:02.730Z,15.50
2023-05-25T06:41:32.211Z,15.50
2023-05-25T06:44:00.385Z,15.50
2023-05-25T06:46:28.543Z,15.30
2023-05-25T06:48:56.713Z,15.30
2023-05-25T06:51:27.390Z,15.30
2023-05-25T06:53:57.337Z,15.20
2023-05-25T06:56:26.280Z,15.40
2023-05-25T06:58:55.765Z,15.60
2023-05-25T07:01:24.002Z,15.90
2023-05-25T07:03:52.167Z,16.10
2023-05-25T07:06:22.120Z,16.00
2023-05-25T07:08:50.317Z,15.90
2023-05-25T07:11:20.711Z,15.90
2023-05-25T07:13:48.891Z,15.90
2023-05-25T07:16:18.422Z,15.70
2023-05-25T07:18:46.603Z,15.60
2023-05-25T07:21:14.733Z,15.80
2023-05-25T07:23:42.965Z,15.80
2023-05-25T07:26:11.131Z,15.60
2023-05-25T07:28:39.299Z,15.70
2023-05-25T07:31:07.509Z,15.70
2023-05-25T07:33:37.121Z,15.70
2023-05-25T07:36:06.054Z,15.80
2023-05-25T07:38:34.246Z,15.70
2023-05-25T07:41:02.371Z,15.50
2023-05-25T07:43:30.496Z,15.30
2023-05-25T07:45:58.839Z,15.20
2023-05-25T07:48:26.963Z,15.30
2023-05-25T07:50:56.490Z,15.60
2023-05-25T07:53:24.733Z,15.70
2023-05-25T07:55:52.985Z,16.00
2023-05-25T07:58:21.373Z,16.30
2023-05-25T08:00:50.341Z,16.40
2023-05-25T08:03:20.946Z,16.50
2023-05-25T08:05:52.288Z,16.60
2023-05-25T08:08:22.060Z,16.70
2023-05-25T08:10:50.182Z,16.60
2023-05-25T08:13:18.337Z,16.50
2023-05-25T08:15:46.670Z,16.50
2023-05-25T08:18:14.843Z,16.40
2023-05-25T08:20:43.030Z,16.70
2023-05-25T08:23:11.182Z,16.90
2023-05-25T08:25:41.087Z,17.10
2023-05-25T08:28:09.152Z,17.00
2023-05-25T08:30:37.320Z,16.90
2023-05-25T08:33:06.859Z,16.80
2023-05-25T08:35:39.251Z,16.80
2023-05-25T08:38:07.575Z,16.80
2023-05-25T08:40:35.722Z,16.70
2023-05-25T08:43:05.214Z,16.70
2023-05-25T08:45:36.714Z,16.80
2023-05-25T08:48:26.870Z,16.70
2023-05-25T08:50:58.535Z,16.70
2023-05-25T08:53:29.120Z,16.50
2023-05-25T08:55:59.930Z,16.60
2023-05-25T08:58:35.092Z,16.80
2023-05-25T09:01:09.195Z,17.00
2023-05-25T09:03:39.178Z,16.90
2023-05-25T09:06:08.310Z,17.10
2023-05-25T09:08:39.299Z,17.10
2023-05-25T09:11:09.947Z,17.20
2023-05-25T09:13:41.337Z,17.10
2023-05-25T09:16:11.053Z,17.30
2023-05-25T09:18:40.132Z,17.30
2023-05-25T09:21:08.328Z,17.50
2023-05-25T09:23:38.221Z,17.70
2023-05-25T09:26:06.621Z,17.60
2023-05-25T09:28:34.677Z,17.70
2023-05-25T09:31:04.201Z,17.70
2023-05-25T09:33:33.237Z,17.60
2023-05-25T09:36:02.964Z,17.40
2023-05-25T09:38:32.110Z,17.30
2023-05-25T09:41:00.569Z,17.30
2023-05-25T09:43:40.588Z,17.40
2023-05-25T09:46:12.836Z,17.40
2023-05-25T09:48:41.315Z,17.50
2023-05-25T09:51:10.146Z,17.60
2023-05-25T09:53:38.410Z,17.60
2023-05-25T09:56:07.544Z,17.60
2023-05-25T09:58:36.037Z,17.50
2023-05-25T10:01:04.647Z,17.50
2023-05-25T10:03:34.224Z,17.50
2023-05-25T10:06:04.169Z,17.40
2023-05-25T10:08:33.474Z,17.60
2023-05-25T10:11:02.346Z,17.80
2023-05-25T10:13:33.451Z,18.10
2023-05-25T10:16:03.154Z,18.00
2023-05-25T10:18:37.592Z,17.90
2023-05-25T10:21:09.980Z,18.20
2023-05-25T10:23:46.031Z,18.30
2023-05-25T10:26:21.367Z,18.40
2023-05-25T10:28:52.805Z,18.40
2023-05-25T10:31:22.698Z,18.40
2023-05-25T10:33:52.771Z,18.30
2023-05-25T10:36:23.075Z,18.20
2023-05-25T10:38:53.146Z,18.40
2023-05-25T10:41:21.896Z,18.40
2023-05-25T10:43:53.314Z,18.30
2023-05-25T10:46:22.465Z,18.40
2023-05-25T10:48:52.826Z,18.30
2023-05-25T10:51:21.519Z,18.30
2023-05-25T10:54:01.654Z,18.30
2023-05-25T10:56:29.798Z,18.60
2023-05-25T10:58:58.067Z,18.60
2023-05-25T11:01:26.918Z,18.50
2023-05-25T11:04:17.503Z,18.30
2023-05-25T11:07:13.494Z,18.20
2023-05-25T11:09:58.147Z,18.10
2023-05-25T11:12:27.870Z,18.10
2023-05-25T11:15:16.218Z,18.10
2023-05-25T11:18:01.302Z,18.30
2023-05-25T11:20:31.885Z,18.40
2023-05-25T11:23:00.059Z,18.40
2023-05-25T11:25:41.271Z,18.50
2023-05-25T11:28:11.583Z,18.40
2023-05-25T11:30:42.564Z,18.30
2023-05-25T11:33:11.374Z,18.20
2023-05-25T11:35:45.403Z,18.10
2023-05-25T11:38:13.819Z,18.00
2023-05-25T11:40:41.916Z,18.00
2023-05-25T11:43:10.748Z,18.20
2023-05-25T11:45:39.261Z,18.20
2023-05-25T11:48:08.220Z,18.40
2023-05-25T11:50:36.451Z,18.50
2023-05-25T11:53:08.100Z,18.60
2023-05-25T11:55:40.083Z,18.60
2023-05-25T11:58:08.213Z,18.60
2023-05-25T12:00:36.305Z,18.50
2023-05-25T12:03:05.682Z,18.60
2023-05-25T12:05:40.665Z,18.70
2023-05-25T12:08:10.174Z,18.90
2023-05-25T12:10:51.960Z,19.00
2023-05-25T12:13:21.339Z,19.10
2023-05-25T12:15:49.614Z,19.20
2023-05-25T12:18:18.108Z,19.40
2023-05-25T12:20:46.600Z,19.50
2023-05-25T12:23:16.852Z,19.60
2023-05-25T12:25:51.030Z,19.60
2023-05-25T12:28:19.538Z,19.40
2023-05-25T12:30:47.942Z,19.30
2023-05-25T12:33:16.510Z,19.30
2023-05-25T12:35:49.624Z,19.40
2023-05-25T12:38:22.086Z,19.30
2023-05-25T12:41:07.033Z,19.20
2023-05-25T12:43:39.930Z,19.30
2023-05-25T12:46:08.090Z,19.30
2023-05-25T12:48:36.329Z,19.30
2023-05-25T12:51:04.688Z,19.30
2023-05-25T12:53:50.902Z,19.50
2023-05-25T12:56:19.289Z,19.60
2023-05-25T12:58:47.509Z,19.60
2023-05-25T13:01:15.619Z,19.40
2023-05-25T13:03:43.690Z,19.30
2023-05-25T13:06:11.750Z,19.20
2023-05-25T13:08:41.380Z,19.10
2023-05-25T13:11:09.654Z,19.00
2023-05-25T13:13:37.928Z,19.10
2023-05-25T13:16:06.659Z,19.20
2023-05-25T13:18:34.766Z,19.00
2023-05-25T13:21:03.050Z,19.10
2023-05-25T13:23:32.269Z,19.10
2023-05-25T13:26:01.677Z,19.30
2023-05-25T13:28:29.771Z,19.30
2023-05-25T13:30:57.880Z,19.10
2023-05-25T13:33:25.991Z,19.10
2023-05-25T13:36:08.369Z,19.10
2023-05-25T13:38:38.102Z,19.10
2023-05-25T13:41:07.638Z,19.10
2023-05-25T13:43:36.056Z,19.10
2023-05-25T13:46:04.318Z,19.20
2023-05-25T13:48:32.456Z,19.20
2023-05-25T13:51:00.573Z,19.30
2023-05-25T13:53:28.677Z,19.30
2023-05-25T13:55:56.744Z,19.40
2023-05-25T13:58:26.262Z,19.30
2023-05-25T14:00:54.390Z,19.30
2023-05-25T14:03:22.709Z,19.40
2023-05-25T14:05:51.304Z,19.30
2023-05-25T14:08:19.333Z,19.50
2023-05-25T14:10:47.535Z,19.60
2023-05-25T14:13:15.892Z,19.60
2023-05-25T14:15:46.751Z,19.50
2023-05-25T14:18:15.204Z,19.40
2023-05-25T14:20:43.366Z,19.30
2023-05-25T14:23:14.218Z,19.10
2023-05-25T14:25:48.896Z,19.00
2023-05-25T14:28:17.025Z,19.10
2023-05-25T14:30:46.508Z,19.20
2023-05-25T14:33:17.221Z,19.30
2023-05-25T14:35:45.680Z,19.30
2023-05-25T14:38:14.238Z,19.30
2023-05-25T14:40:42.348Z,19.30
2023-05-25T14:43:15.916Z,19.20
2023-05-25T14:45:44.261Z,19.30
2023-05-25T14:48:16.936Z,19.30
2023-05-25T14:50:45.783Z,19.50
2023-05-25T14:53:14.560Z,19.60
2023-05-25T14:55:42.939Z,19.60
2023-05-25T14:58:11.869Z,19.60
2023-05-25T15:00:39.932Z,19.60
2023-05-25T15:03:08.166Z,19.60
2023-05-25T15:05:37.770Z,19.70
2023-05-25T15:08:06.237Z,19.70
2023-05-25T15:10:34.340Z,19.90
2023-05-25T15:13:02.442Z,19.90
2023-05-25T15:15:30.845Z,20.00
2023-05-25T15:17:58.987Z,20.20
2023-05-25T15:20:27.167Z,20.30
2023-05-25T15:22:56.618Z,20.20
2023-05-25T15:27:59.565Z,19.70
2023-05-25T15:30:27.811Z,19.60
2023-05-25T15:32:55.948Z,19.50
2023-05-25T15:35:31.029Z,19.30
2023-05-25T15:38:00.877Z,19.10
2023-05-25T15:40:29.156Z,19.00
2023-05-25T15:42:57.232Z,18.90
2023-05-25T15:45:26.171Z,18.80
2023-05-25T15:47:54.384Z,18.80
2023-05-25T15:50:22.569Z,18.70
2023-05-25T15:52:50.730Z,18.70
2023-05-25T15:55:20.573Z,18.70
2023-05-25T15:57:48.757Z,18.70
2023-05-25T16:00:17.893Z,18.70
2023-05-25T16:02:46.091Z,18.70
2023-05-25T16:05:14.305Z,18.70
2023-05-25T16:07:42.505Z,18.70
2023-05-25T16:10:11.453Z,18.60
2023-05-25T16:12:41.032Z,18.60
2023-05-25T16:15:10.545Z,18.60
2023-05-25T16:17:38.702Z,18.60
2023-05-25T16:20:09.264Z,18.60
2023-05-25T16:22:37.360Z,18.70
2023-05-25T16:25:06.373Z,18.70
2023-05-25T16:27:34.536Z,18.70
2023-05-25T16:30:04.224Z,18.60
2023-05-25T16:32:32.771Z,18.60
2023-05-25T16:35:01.520Z,18.50
2023-05-25T16:37:29.620Z,18.50
2023-05-25T16:39:57.732Z,18.40
2023-05-25T16:42:26.409Z,18.40
2023-05-25T16:44:54.448Z,18.40
2023-05-25T16:47:24.146Z,18.40
2023-05-25T16:49:52.231Z,18.40
2023-05-25T16:52:20.349Z,18.40
2023-05-25T16:54:48.430Z,18.40
2023-05-25T16:57:16.520Z,18.30
2023-05-25T16:59:45.571Z,18.30
2023-05-25T17:02:13.709Z,18.20
2023-05-25T17:04:43.464Z,18.20
2023-05-25T17:07:11.592Z,18.10
2023-05-25T17:09:39.819Z,18.30
2023-05-25T17:12:09.221Z,18.20
2023-05-25T17:14:37.384Z,18.20
2023-05-25T17:17:06.134Z,18.10
2023-05-25T17:19:34.636Z,18.10
2023-05-25T17:22:04.231Z,18.00
2023-05-25T17:24:32.363Z,18.00
2023-05-25T17:27:01.709Z,17.90
2023-05-25T17:29:29.840Z,17.90
2023-05-25T17:31:58.015Z,17.90
2023-05-25T17:34:26.171Z,17.90
2023-05-25T17:36:54.293Z,17.80
2023-05-25T17:39:23.773Z,17.80
2023-05-25T17:41:52.012Z,17.80
2023-05-25T17:44:20.191Z,17.80
2023-05-25T17:46:48.578Z,17.60
2023-05-25T17:49:16.738Z,17.60
2023-05-25T17:51:44.850Z,17.50
2023-05-25T17:54:15.338Z,17.50
2023-05-25T17:56:44.859Z,17.40
2023-05-25T17:59:13.251Z,17.30
2023-05-25T18:01:41.795Z,17.30
2023-05-25T18:04:10.276Z,17.30
2023-05-25T18:06:38.535Z,17.20
2023-05-25T18:09:06.938Z,17.20
2023-05-25T18:11:36.519Z,17.10
2023-05-25T18:14:06.237Z,17.10
2023-05-25T18:16:39.482Z,17.00
2023-05-25T18:19:09.393Z,16.90
2023-05-25T18:21:39.190Z,16.80
2023-05-25T18:24:08.988Z,16.80
2023-05-25T18:26:37.142Z,16.70
2023-05-25T18:29:06.675Z,16.70
2023-05-25T18:31:34.967Z,16.60
2023-05-25T18:34:03.281Z,16.60
2023-05-25T18:36:33.038Z,16.50
2023-05-25T18:39:01.280Z,16.40
2023-05-25T18:41:29.639Z,16.30
2023-05-25T18:43:58.219Z,16.20
2023-05-25T18:46:28.833Z,16.20
2023-05-25T18:48:57.286Z,16.10
2023-05-25T18:51:25.882Z,16.00
2023-05-25T18:53:54.738Z,16.10
2023-05-25T18:56:22.905Z,15.90
2023-05-25T18:58:52.100Z,15.80
2023-05-25T19:01:20.391Z,15.70
2023-05-25T19:03:49.972Z,15.70
2023-05-25T19:06:18.266Z,15.60
2023-05-25T19:08:46.510Z,15.60
2023-05-25T19:11:15.525Z,15.60
2023-05-25T19:13:44.124Z,15.70
2023-05-25T19:16:12.490Z,15.50
2023-05-25T19:18:40.726Z,15.40
2023-05-25T19:21:10.320Z,15.30
2023-05-25T19:23:38.537Z,15.20
2023-05-25T19:26:06.740Z,15.10
2023-05-25T19:28:35.061Z,15.00
2023-05-25T19:31:03.273Z,14.90
2023-05-25T19:33:31.466Z,15.00
2023-05-25T19:35:59.642Z,14.90
2023-05-25T19:38:40.343Z,14.90
2023-05-25T19:41:09.239Z,14.80
2023-05-25T19:43:38.236Z,14.70
2023-05-25T19:46:06.831Z,14.60
2023-05-25T19:48:35.258Z,14.60
2023-05-25T19:51:03.454Z,14.60
2023-05-25T19:53:33.040Z,14.60
2023-05-25T19:56:03.164Z,14.50
2023-05-25T19:58:31.529Z,14.60
2023-05-25T20:01:00.064Z,14.50
2023-05-25T20:03:28.353Z,14.50
2023-05-25T20:05:57.778Z,14.50
2023-05-25T20:08:27.175Z,14.40
2023-05-25T20:10:56.737Z,14.30
2023-05-25T20:13:25.045Z,14.20
2023-05-25T20:15:53.486Z,14.20
2023-05-25T20:18:23.873Z,14.20
2023-05-25T20:20:52.437Z,14.20
2023-05-25T20:23:20.822Z,14.20
2023-05-25T20:25:49.199Z,14.10
2023-05-25T20:28:19.573Z,14.10
2023-05-25T20:30:47.952Z,14.00
2023-05-25T20:33:16.347Z,14.00
2023-05-25T20:35:44.688Z,14.00
2023-05-25T20:38:13.132Z,13.90
2023-05-25T20:40:41.274Z,13.90
2023-05-25T20:43:09.413Z,13.90
2023-05-25T20:45:38.972Z,13.90
2023-05-25T20:48:07.417Z,13.80
2023-05-25T20:50:35.590Z,13.80
2023-05-25T20:53:03.952Z,13.80
2023-05-25T20:55:32.096Z,13.70
2023-05-25T20:58:00.989Z,13.70
2023-05-25T21:00:29.262Z,13.70
2023-05-25T21:02:59.153Z,13.60
2023-05-25T21:05:27.340Z,13.60
2023-05-25T21:07:55.477Z,13.60
2023-05-25T21:10:23.673Z,13.50
2023-05-25T21:12:51.984Z,13.50
2023-05-25T21:15:20.083Z,13.50
2023-05-25T21:17:48.262Z,13.40
2023-05-25T21:20:18.051Z,13.30
2023-05-25T21:22:46.258Z,13.30
2023-05-25T21:25:14.432Z,13.20
2023-05-25T21:27:42.744Z,13.20
2023-05-25T21:30:12.130Z,13.10
2023-05-25T21:32:40.997Z,13.20
2023-05-25T21:35:09.288Z,13.10
2023-05-25T21:37:38.817Z,13.10
2023-05-25T21:40:08.873Z,13.00
2023-05-25T21:42:37.260Z,12.70
2023-05-25T21:45:06.332Z,13.00
2023-05-25T21:47:34.424Z,12.90
2023-05-25T21:50:02.671Z,13.00
2023-05-25T21:52:30.842Z,12.90
2023-05-25T21:55:00.337Z,12.90
2023-05-25T21:57:28.483Z,12.90
2023-05-25T21:59:56.568Z,12.80
2023-05-25T22:02:24.852Z,12.80
2023-05-25T22:04:53.074Z,12.70
2023-05-25T22:07:21.272Z,12.60
2023-05-25T22:09:49.409Z,12.60
2023-05-25T22:12:20.636Z,12.60
2023-05-25T22:14:49.184Z,12.50
2023-05-25T22:17:18.879Z,12.50
2023-05-25T22:19:55.243Z,12.50
2023-05-25T22:22:23.910Z,12.40
2023-05-25T22:24:52.233Z,12.40
2023-05-25T22:27:21.903Z,12.40
2023-05-25T22:29:50.243Z,12.40
2023-05-25T22:32:18.365Z,12.40
2023-05-25T22:34:47.241Z,12.40
2023-05-25T22:37:17.233Z,12.30
2023-05-25T22:39:45.868Z,12.30
2023-05-25T22:42:14.027Z,12.30
2023-05-25T22:44:43.554Z,12.30
2023-05-25T22:47:11.755Z,12.20
2023-05-25T22:49:43.002Z,12.10
2023-05-25T22:52:13.274Z,12.10
2023-05-25T22:54:41.403Z,12.10
2023-05-25T22:57:11.113Z,12.00
2023-05-25T22:59:39.230Z,12.00
2023-05-25T23:02:08.920Z,11.90
2023-05-25T23:04:37.354Z,11.90
2023-05-25T23:07:06.051Z,11.80
2023-05-25T23:09:34.229Z,11.80
2023-05-25T23:12:02.707Z,11.80
2023-05-25T23:14:31.340Z,11.90
2023-05-25T23:16:59.468Z,11.80
2023-05-25T23:19:29.052Z,11.70
2023-05-25T23:21:58.561Z,11.70
2023-05-25T23:24:26.963Z,11.70
2023-05-25T23:26:55.064Z,11.60
2023-05-25T23:29:23.258Z,11.60
2023-05-25T23:31:51.461Z,11.60
2023-05-25T23:34:19.890Z,11.60
2023-05-25T23:36:49.390Z,11.70
2023-05-25T23:39:17.819Z,11.80
2023-05-25T23:41:45.946Z,11.80
2023-05-25T23:44:14.282Z,11.70
2023-05-25T23:46:42.670Z,11.70
2023-05-25T23:49:10.840Z,11.70
2023-05-25T23:51:38.989Z,11.60
2023-05-25T23:54:08.744Z,11.50
2023-05-25T23:56:36.865Z,11.50
2023-05-25T23:59:05.262Z,11.40
